Louise, Texas
Current Conditions -  °F | °C
As of 10:35 PM on Thursday 18 Dec 2014 (Local Time) from KARM Reporting Station
Haze Haze  
Wind Chill: 64°   Ceiling: 700
Heat Index: 64°   Visibility: 4mi
Dew Point: 62°   Wind: 9mph
Humidity: 93%   Direction: 70°ENE
Pressure: 30.04"   Gusts: NA
Location:  29.11°N, 96.4°W
Report Text: KARM 190435Z AUTO 07008KT 4SM BR OVC007 18/17 A3004 RMK AO2 LTG DSNT W AND NW T01760165
Loading
Personal Weather Stations






























Interactive Weather Map New forecast layout! Learn more

10-Day Weather Forecast

Advertisements
Track Severe Weather on mobile